sensor_id;sensor_type;location;lat;lon;timestamp;temperature;humidity
19552;DHT22;9921;47.186;9.778;2023-06-14T00:00:17;15.90;99.90
19552;DHT22;9921;47.186;9.778;2023-06-14T00:02:45;16.00;99.90
19552;DHT22;9921;47.186;9.778;2023-06-14T00:05:12;16.10;99.90
19552;DHT22;9921;47.186;9.778;2023-06-14T00:07:41;16.20;99.90
19552;DHT22;9921;47.186;9.778;2023-06-14T00:10:09;16.20;99.90
19552;DHT22;9921;47.186;9.778;2023-06-14T00:12:38;16.00;99.90
19552;DHT22;9921;47.186;9.778;2023-06-14T00:15:07;15.80;99.90
19552;DHT22;9921;47.186;9.778;2023-06-14T00:17:35;15.70;99.90
19552;DHT22;9921;47.186;9.778;2023-06-14T00:20:05;15.70;99.90
19552;DHT22;9921;47.186;9.778;2023-06-14T00:22:33;15.70;99.90
19552;DHT22;9921;47.186;9.778;2023-06-14T00:25:02;15.70;99.90
19552;DHT22;9921;47.186;9.778;2023-06-14T00:27:29;15.70;99.90
19552;DHT22;9921;47.186;9.778;2023-06-14T00:29:56;15.80;99.90
19552;DHT22;9921;47.186;9.778;2023-06-14T00:32:25;15.70;99.90
19552;DHT22;9921;47.186;9.778;2023-06-14T00:34:53;15.60;99.90
19552;DHT22;9921;47.186;9.778;2023-06-14T00:37:20;15.60;99.90
19552;DHT22;9921;47.186;9.778;2023-06-14T00:39:47;15.60;99.90
19552;DHT22;9921;47.186;9.778;2023-06-14T00:42:23;15.40;99.90
19552;DHT22;9921;47.186;9.778;2023-06-14T00:44:54;15.30;99.90
19552;DHT22;9921;47.186;9.778;2023-06-14T00:47:37;15.30;99.90
19552;DHT22;9921;47.186;9.778;2023-06-14T00:50:06;15.10;99.90
19552;DHT22;9921;47.186;9.778;2023-06-14T00:52:34;15.00;99.90
19552;DHT22;9921;47.186;9.778;2023-06-14T00:55:01;15.10;99.90
19552;DHT22;9921;47.186;9.778;2023-06-14T00:57:28;15.10;99.90
19552;DHT22;9921;47.186;9.778;2023-06-14T00:59:56;15.10;99.90
19552;DHT22;9921;47.186;9.778;2023-06-14T01:02:23;15.20;99.90
19552;DHT22;9921;47.186;9.778;2023-06-14T01:04:52;15.20;99.90
19552;DHT22;9921;47.186;9.778;2023-06-14T01:07:28;15.20;99.90
19552;DHT22;9921;47.186;9.778;2023-06-14T01:10:08;15.30;99.90
19552;DHT22;9921;47.186;9.778;2023-06-14T01:12:44;15.20;99.90
19552;DHT22;9921;47.186;9.778;2023-06-14T01:15:15;15.30;99.90
19552;DHT22;9921;47.186;9.778;2023-06-14T01:17:42;15.00;99.90
19552;DHT22;9921;47.186;9.778;2023-06-14T01:20:13;15.00;99.90
19552;DHT22;9921;47.186;9.778;2023-06-14T01:22:50;15.10;99.90
19552;DHT22;9921;47.186;9.778;2023-06-14T01:25:18;15.20;99.90
19552;DHT22;9921;47.186;9.778;2023-06-14T01:27:47;15.10;99.90
19552;DHT22;9921;47.186;9.778;2023-06-14T01:30:15;15.20;99.90
19552;DHT22;9921;47.186;9.778;2023-06-14T01:32:42;15.20;99.90
19552;DHT22;9921;47.186;9.778;2023-06-14T01:35:10;15.10;99.90
19552;DHT22;9921;47.186;9.778;2023-06-14T01:37:38;15.10;99.90
19552;DHT22;9921;47.186;9.778;2023-06-14T01:40:10;15.10;99.90
19552;DHT22;9921;47.186;9.778;2023-06-14T01:42:38;15.10;99.90
19552;DHT22;9921;47.186;9.778;2023-06-14T01:45:06;15.20;99.90
19552;DHT22;9921;47.186;9.778;2023-06-14T01:47:34;15.00;99.90
19552;DHT22;9921;47.186;9.778;2023-06-14T01:50:05;14.90;99.90
19552;DHT22;9921;47.186;9.778;2023-06-14T01:52:47;14.90;99.90
19552;DHT22;9921;47.186;9.778;2023-06-14T01:55:15;15.00;99.90
19552;DHT22;9921;47.186;9.778;2023-06-14T01:57:43;15.00;99.90
19552;DHT22;9921;47.186;9.778;2023-06-14T02:00:11;15.00;99.90
19552;DHT22;9921;47.186;9.778;2023-06-14T02:02:44;14.90;99.90
19552;DHT22;9921;47.186;9.778;2023-06-14T02:05:25;14.90;99.90
19552;DHT22;9921;47.186;9.778;2023-06-14T02:07:52;14.80;99.90
19552;DHT22;9921;47.186;9.778;2023-06-14T02:10:23;14.80;99.90
19552;DHT22;9921;47.186;9.778;2023-06-14T02:12:50;14.80;99.90
19552;DHT22;9921;47.186;9.778;2023-06-14T02:15:17;14.70;99.90
19552;DHT22;9921;47.186;9.778;2023-06-14T02:17:45;14.70;99.90
19552;DHT22;9921;47.186;9.778;2023-06-14T02:20:13;14.60;99.90
19552;DHT22;9921;47.186;9.778;2023-06-14T02:22:40;14.60;99.90
19552;DHT22;9921;47.186;9.778;2023-06-14T02:25:07;14.70;99.90
19552;DHT22;9921;47.186;9.778;2023-06-14T02:27:36;14.70;99.90
19552;DHT22;9921;47.186;9.778;2023-06-14T02:30:03;14.70;99.90
19552;DHT22;9921;47.186;9.778;2023-06-14T02:32:30;14.70;99.90
19552;DHT22;9921;47.186;9.778;2023-06-14T02:34:59;14.60;99.90
19552;DHT22;9921;47.186;9.778;2023-06-14T02:37:26;14.60;99.90
19552;DHT22;9921;47.186;9.778;2023-06-14T02:39:53;14.70;99.90
19552;DHT22;9921;47.186;9.778;2023-06-14T02:42:20;14.70;99.90
19552;DHT22;9921;47.186;9.778;2023-06-14T02:44:48;14.70;99.90
19552;DHT22;9921;47.186;9.778;2023-06-14T02:47:16;14.50;99.90
19552;DHT22;9921;47.186;9.778;2023-06-14T02:49:43;14.50;99.90
19552;DHT22;9921;47.186;9.778;2023-06-14T02:52:12;14.40;99.90
19552;DHT22;9921;47.186;9.778;2023-06-14T02:54:39;14.40;99.90
19552;DHT22;9921;47.186;9.778;2023-06-14T02:57:07;14.40;99.90
19552;DHT22;9921;47.186;9.778;2023-06-14T02:59:34;14.30;99.90
19552;DHT22;9921;47.186;9.778;2023-06-14T03:02:02;14.30;99.90
19552;DHT22;9921;47.186;9.778;2023-06-14T03:04:29;14.30;99.90
19552;DHT22;9921;47.186;9.778;2023-06-14T03:07:02;14.30;99.90
19552;DHT22;9921;47.186;9.778;2023-06-14T03:09:34;14.10;99.90
19552;DHT22;9921;47.186;9.778;2023-06-14T03:12:01;14.10;99.90
19552;DHT22;9921;47.186;9.778;2023-06-14T03:14:28;14.00;99.90
19552;DHT22;9921;47.186;9.778;2023-06-14T03:16:56;14.00;99.90
19552;DHT22;9921;47.186;9.778;2023-06-14T03:19:24;14.00;99.90
19552;DHT22;9921;47.186;9.778;2023-06-14T03:21:52;13.90;99.90
19552;DHT22;9921;47.186;9.778;2023-06-14T03:24:22;13.90;99.90
19552;DHT22;9921;47.186;9.778;2023-06-14T03:26:49;13.80;99.90
19552;DHT22;9921;47.186;9.778;2023-06-14T03:29:16;13.90;99.90
19552;DHT22;9921;47.186;9.778;2023-06-14T03:31:57;13.90;99.90
19552;DHT22;9921;47.186;9.778;2023-06-14T03:34:25;13.90;99.90
19552;DHT22;9921;47.186;9.778;2023-06-14T03:36:52;14.00;99.90
19552;DHT22;9921;47.186;9.778;2023-06-14T03:39:19;13.90;99.90
19552;DHT22;9921;47.186;9.778;2023-06-14T03:41:46;13.90;99.90
19552;DHT22;9921;47.186;9.778;2023-06-14T03:44:15;13.70;99.90
19552;DHT22;9921;47.186;9.778;2023-06-14T03:46:43;13.70;99.90
19552;DHT22;9921;47.186;9.778;2023-06-14T03:49:10;13.70;99.90
19552;DHT22;9921;47.186;9.778;2023-06-14T03:51:39;13.80;99.90
19552;DHT22;9921;47.186;9.778;2023-06-14T03:54:06;13.90;99.90
19552;DHT22;9921;47.186;9.778;2023-06-14T03:56:33;13.90;99.90
19552;DHT22;9921;47.186;9.778;2023-06-14T03:59:01;14.00;99.90
19552;DHT22;9921;47.186;9.778;2023-06-14T04:01:28;13.90;99.90
19552;DHT22;9921;47.186;9.778;2023-06-14T04:03:56;13.90;99.90
19552;DHT22;9921;47.186;9.778;2023-06-14T04:06:24;13.90;99.90
19552;DHT22;9921;47.186;9.778;2023-06-14T04:08:59;13.80;99.90
19552;DHT22;9921;47.186;9.778;2023-06-14T04:11:29;13.80;99.90
19552;DHT22;9921;47.186;9.778;2023-06-14T04:13:56;13.90;99.90
19552;DHT22;9921;47.186;9.778;2023-06-14T04:16:23;14.00;99.90
19552;DHT22;9921;47.186;9.778;2023-06-14T04:18:50;14.10;99.90
19552;DHT22;9921;47.186;9.778;2023-06-14T04:21:17;14.20;99.90
19552;DHT22;9921;47.186;9.778;2023-06-14T04:23:44;14.20;99.90
19552;DHT22;9921;47.186;9.778;2023-06-14T04:26:12;14.20;99.90
19552;DHT22;9921;47.186;9.778;2023-06-14T04:28:40;14.20;99.90
19552;DHT22;9921;47.186;9.778;2023-06-14T04:31:07;14.10;99.90
19552;DHT22;9921;47.186;9.778;2023-06-14T04:33:35;14.20;99.90
19552;DHT22;9921;47.186;9.778;2023-06-14T04:36:09;14.20;99.90
19552;DHT22;9921;47.186;9.778;2023-06-14T04:38:37;14.20;99.90
19552;DHT22;9921;47.186;9.778;2023-06-14T04:41:04;14.30;99.90
19552;DHT22;9921;47.186;9.778;2023-06-14T04:43:32;14.30;99.90
19552;DHT22;9921;47.186;9.778;2023-06-14T04:46:04;14.40;99.90
19552;DHT22;9921;47.186;9.778;2023-06-14T04:48:36;14.40;99.90
19552;DHT22;9921;47.186;9.778;2023-06-14T04:51:05;14.50;99.90
19552;DHT22;9921;47.186;9.778;2023-06-14T04:53:32;14.70;99.90
19552;DHT22;9921;47.186;9.778;2023-06-14T04:55:59;14.60;99.90
19552;DHT22;9921;47.186;9.778;2023-06-14T04:58:27;14.50;99.90
19552;DHT22;9921;47.186;9.778;2023-06-14T05:00:55;14.50;99.90
19552;DHT22;9921;47.186;9.778;2023-06-14T05:03:22;14.50;99.90
19552;DHT22;9921;47.186;9.778;2023-06-14T05:05:49;14.60;99.90
19552;DHT22;9921;47.186;9.778;2023-06-14T05:08:18;14.60;99.90
19552;DHT22;9921;47.186;9.778;2023-06-14T05:10:45;14.80;99.90
19552;DHT22;9921;47.186;9.778;2023-06-14T05:13:12;15.00;99.90
19552;DHT22;9921;47.186;9.778;2023-06-14T05:15:39;15.10;99.90
19552;DHT22;9921;47.186;9.778;2023-06-14T05:18:07;15.20;99.90
19552;DHT22;9921;47.186;9.778;2023-06-14T05:20:35;15.20;99.90
19552;DHT22;9921;47.186;9.778;2023-06-14T05:23:03;15.20;99.90
19552;DHT22;9921;47.186;9.778;2023-06-14T05:25:30;15.20;99.90
19552;DHT22;9921;47.186;9.778;2023-06-14T05:27:57;15.40;99.90
19552;DHT22;9921;47.186;9.778;2023-06-14T05:30:23;15.50;99.90
19552;DHT22;9921;47.186;9.778;2023-06-14T05:32:51;15.50;99.90
19552;DHT22;9921;47.186;9.778;2023-06-14T05:35:20;15.60;99.90
19552;DHT22;9921;47.186;9.778;2023-06-14T05:37:48;15.70;99.90
19552;DHT22;9921;47.186;9.778;2023-06-14T05:40:15;15.80;99.90
19552;DHT22;9921;47.186;9.778;2023-06-14T05:42:43;15.90;99.90
19552;DHT22;9921;47.186;9.778;2023-06-14T05:45:10;16.10;99.90
19552;DHT22;9921;47.186;9.778;2023-06-14T05:47:37;16.20;99.90
19552;DHT22;9921;47.186;9.778;2023-06-14T05:50:04;16.30;99.90
19552;DHT22;9921;47.186;9.778;2023-06-14T05:52:34;16.20;99.90
19552;DHT22;9921;47.186;9.778;2023-06-14T05:55:02;16.10;99.90
19552;DHT22;9921;47.186;9.778;2023-06-14T05:57:29;15.90;99.90
19552;DHT22;9921;47.186;9.778;2023-06-14T05:59:56;15.70;99.90
19552;DHT22;9921;47.186;9.778;2023-06-14T06:02:23;15.60;99.90
19552;DHT22;9921;47.186;9.778;2023-06-14T06:04:50;15.50;99.90
19552;DHT22;9921;47.186;9.778;2023-06-14T06:07:17;15.50;99.90
19552;DHT22;9921;47.186;9.778;2023-06-14T06:09:45;15.50;99.90
19552;DHT22;9921;47.186;9.778;2023-06-14T06:12:12;15.50;99.90
19552;DHT22;9921;47.186;9.778;2023-06-14T06:14:38;15.60;99.90
19552;DHT22;9921;47.186;9.778;2023-06-14T06:17:05;15.80;99.90
19552;DHT22;9921;47.186;9.778;2023-06-14T06:19:32;16.00;99.90
19552;DHT22;9921;47.186;9.778;2023-06-14T06:21:59;16.20;99.90
19552;DHT22;9921;47.186;9.778;2023-06-14T06:24:26;16.30;99.90
19552;DHT22;9921;47.186;9.778;2023-06-14T06:26:54;16.50;99.90
19552;DHT22;9921;47.186;9.778;2023-06-14T06:29:21;16.60;99.90
19552;DHT22;9921;47.186;9.778;2023-06-14T06:31:48;16.70;99.90
19552;DHT22;9921;47.186;9.778;2023-06-14T06:34:15;16.80;99.90
19552;DHT22;9921;47.186;9.778;2023-06-14T06:36:42;16.80;99.90
19552;DHT22;9921;47.186;9.778;2023-06-14T06:39:09;16.80;99.90
19552;DHT22;9921;47.186;9.778;2023-06-14T06:41:37;16.80;99.90
19552;DHT22;9921;47.186;9.778;2023-06-14T06:44:06;16.80;99.90
19552;DHT22;9921;47.186;9.778;2023-06-14T06:46:35;16.90;99.90
19552;DHT22;9921;47.186;9.778;2023-06-14T06:49:05;17.00;99.90
19552;DHT22;9921;47.186;9.778;2023-06-14T06:51:34;17.10;99.90
19552;DHT22;9921;47.186;9.778;2023-06-14T06:54:01;17.20;99.90
19552;DHT22;9921;47.186;9.778;2023-06-14T06:56:29;17.30;99.90
19552;DHT22;9921;47.186;9.778;2023-06-14T06:58:57;17.30;99.90
19552;DHT22;9921;47.186;9.778;2023-06-14T07:01:25;17.40;99.90
19552;DHT22;9921;47.186;9.778;2023-06-14T07:03:54;17.40;99.90
19552;DHT22;9921;47.186;9.778;2023-06-14T07:06:21;17.50;99.90
19552;DHT22;9921;47.186;9.778;2023-06-14T07:08:48;17.50;99.90
19552;DHT22;9921;47.186;9.778;2023-06-14T07:11:15;17.60;99.90
19552;DHT22;9921;47.186;9.778;2023-06-14T07:13:42;17.70;99.90
19552;DHT22;9921;47.186;9.778;2023-06-14T07:16:08;17.80;99.90
19552;DHT22;9921;47.186;9.778;2023-06-14T07:18:37;17.90;99.90
19552;DHT22;9921;47.186;9.778;2023-06-14T07:21:04;18.00;99.90
19552;DHT22;9921;47.186;9.778;2023-06-14T07:23:31;18.10;99.90
19552;DHT22;9921;47.186;9.778;2023-06-14T07:25:57;18.10;99.90
19552;DHT22;9921;47.186;9.778;2023-06-14T07:28:24;18.30;99.90
19552;DHT22;9921;47.186;9.778;2023-06-14T07:30:51;18.30;99.90
19552;DHT22;9921;47.186;9.778;2023-06-14T07:33:18;18.40;99.90
19552;DHT22;9921;47.186;9.778;2023-06-14T07:35:46;18.50;99.90
19552;DHT22;9921;47.186;9.778;2023-06-14T07:38:13;18.60;99.90
19552;DHT22;9921;47.186;9.778;2023-06-14T07:40:40;18.60;99.90
19552;DHT22;9921;47.186;9.778;2023-06-14T07:43:07;18.70;99.90
19552;DHT22;9921;47.186;9.778;2023-06-14T07:45:34;18.90;99.90
19552;DHT22;9921;47.186;9.778;2023-06-14T07:48:01;19.00;99.90
19552;DHT22;9921;47.186;9.778;2023-06-14T07:50:28;19.20;99.90
19552;DHT22;9921;47.186;9.778;2023-06-14T07:52:57;19.30;99.90
19552;DHT22;9921;47.186;9.778;2023-06-14T07:55:23;19.50;99.90
19552;DHT22;9921;47.186;9.778;2023-06-14T07:57:51;19.50;99.90
19552;DHT22;9921;47.186;9.778;2023-06-14T08:00:19;19.60;99.90
19552;DHT22;9921;47.186;9.778;2023-06-14T08:02:46;19.60;99.90
19552;DHT22;9921;47.186;9.778;2023-06-14T08:05:13;19.60;99.90
19552;DHT22;9921;47.186;9.778;2023-06-14T08:07:40;19.60;99.90
19552;DHT22;9921;47.186;9.778;2023-06-14T08:10:09;19.70;99.90
19552;DHT22;9921;47.186;9.778;2023-06-14T08:12:37;19.70;99.90
19552;DHT22;9921;47.186;9.778;2023-06-14T08:15:04;19.70;99.90
19552;DHT22;9921;47.186;9.778;2023-06-14T08:17:31;19.80;99.90
19552;DHT22;9921;47.186;9.778;2023-06-14T08:19:58;19.90;99.90
19552;DHT22;9921;47.186;9.778;2023-06-14T08:22:25;20.10;99.90
19552;DHT22;9921;47.186;9.778;2023-06-14T08:24:53;20.10;99.90
19552;DHT22;9921;47.186;9.778;2023-06-14T08:27:22;20.20;99.90
19552;DHT22;9921;47.186;9.778;2023-06-14T08:29:48;20.30;99.90
19552;DHT22;9921;47.186;9.778;2023-06-14T08:32:15;20.50;99.90
19552;DHT22;9921;47.186;9.778;2023-06-14T08:34:42;20.60;99.90
19552;DHT22;9921;47.186;9.778;2023-06-14T08:37:09;20.70;99.90
19552;DHT22;9921;47.186;9.778;2023-06-14T08:39:36;20.80;99.90
19552;DHT22;9921;47.186;9.778;2023-06-14T08:42:04;20.90;99.90
19552;DHT22;9921;47.186;9.778;2023-06-14T08:44:34;21.00;99.90
19552;DHT22;9921;47.186;9.778;2023-06-14T08:47:00;21.00;99.90
19552;DHT22;9921;47.186;9.778;2023-06-14T08:49:29;21.10;99.90
19552;DHT22;9921;47.186;9.778;2023-06-14T08:52:00;21.10;99.90
19552;DHT22;9921;47.186;9.778;2023-06-14T08:54:28;21.20;99.90
19552;DHT22;9921;47.186;9.778;2023-06-14T08:56:56;21.40;99.90
19552;DHT22;9921;47.186;9.778;2023-06-14T08:59:25;21.50;99.90
19552;DHT22;9921;47.186;9.778;2023-06-14T09:01:54;21.60;99.90
19552;DHT22;9921;47.186;9.778;2023-06-14T09:04:22;21.70;99.90
19552;DHT22;9921;47.186;9.778;2023-06-14T09:06:49;21.80;99.90
19552;DHT22;9921;47.186;9.778;2023-06-14T09:09:19;21.90;99.90
19552;DHT22;9921;47.186;9.778;2023-06-14T09:11:46;22.10;99.90
19552;DHT22;9921;47.186;9.778;2023-06-14T09:14:13;22.10;99.90
19552;DHT22;9921;47.186;9.778;2023-06-14T09:16:40;22.20;99.90
19552;DHT22;9921;47.186;9.778;2023-06-14T09:19:08;22.30;99.90
19552;DHT22;9921;47.186;9.778;2023-06-14T09:21:40;22.50;99.90
19552;DHT22;9921;47.186;9.778;2023-06-14T09:24:13;22.60;99.90
19552;DHT22;9921;47.186;9.778;2023-06-14T09:26:41;22.80;99.90
19552;DHT22;9921;47.186;9.778;2023-06-14T09:29:09;22.90;99.90
19552;DHT22;9921;47.186;9.778;2023-06-14T09:31:36;23.00;99.90
19552;DHT22;9921;47.186;9.778;2023-06-14T09:34:03;23.20;99.90
19552;DHT22;9921;47.186;9.778;2023-06-14T09:36:32;23.30;99.90
19552;DHT22;9921;47.186;9.778;2023-06-14T09:39:02;23.50;99.90
19552;DHT22;9921;47.186;9.778;2023-06-14T09:41:31;23.50;99.90
19552;DHT22;9921;47.186;9.778;2023-06-14T09:44:00;23.70;99.90
19552;DHT22;9921;47.186;9.778;2023-06-14T09:46:28;23.80;99.90
19552;DHT22;9921;47.186;9.778;2023-06-14T09:48:55;24.00;99.90
19552;DHT22;9921;47.186;9.778;2023-06-14T09:51:22;24.10;99.90
19552;DHT22;9921;47.186;9.778;2023-06-14T09:53:52;24.20;99.90
19552;DHT22;9921;47.186;9.778;2023-06-14T09:56:23;24.40;99.90
19552;DHT22;9921;47.186;9.778;2023-06-14T09:58:55;24.50;99.90
19552;DHT22;9921;47.186;9.778;2023-06-14T10:01:23;24.60;99.90
19552;DHT22;9921;47.186;9.778;2023-06-14T10:03:51;24.60;99.90
19552;DHT22;9921;47.186;9.778;2023-06-14T10:06:18;24.60;99.90
19552;DHT22;9921;47.186;9.778;2023-06-14T10:08:48;24.80;99.90
19552;DHT22;9921;47.186;9.778;2023-06-14T10:11:17;24.90;99.90
19552;DHT22;9921;47.186;9.778;2023-06-14T10:13:44;25.00;99.90
19552;DHT22;9921;47.186;9.778;2023-06-14T10:16:16;25.20;99.90
19552;DHT22;9921;47.186;9.778;2023-06-14T10:18:48;25.30;99.90
19552;DHT22;9921;47.186;9.778;2023-06-14T10:21:21;25.50;99.90
19552;DHT22;9921;47.186;9.778;2023-06-14T10:23:50;25.70;99.90
19552;DHT22;9921;47.186;9.778;2023-06-14T10:26:22;25.80;99.90
19552;DHT22;9921;47.186;9.778;2023-06-14T10:28:58;26.00;99.90
19552;DHT22;9921;47.186;9.778;2023-06-14T10:31:40;26.10;99.90
19552;DHT22;9921;47.186;9.778;2023-06-14T10:34:08;26.30;99.90
19552;DHT22;9921;47.186;9.778;2023-06-14T10:36:35;26.40;99.90
19552;DHT22;9921;47.186;9.778;2023-06-14T10:39:05;26.40;99.90
19552;DHT22;9921;47.186;9.778;2023-06-14T10:41:37;26.50;99.90
19552;DHT22;9921;47.186;9.778;2023-06-14T10:44:42;26.60;99.90
19552;DHT22;9921;47.186;9.778;2023-06-14T10:47:24;26.50;99.90
19552;DHT22;9921;47.186;9.778;2023-06-14T10:49:53;26.50;99.90
19552;DHT22;9921;47.186;9.778;2023-06-14T10:52:26;26.50;99.90
19552;DHT22;9921;47.186;9.778;2023-06-14T10:55:01;26.50;99.90
19552;DHT22;9921;47.186;9.778;2023-06-14T10:57:31;26.50;99.90
19552;DHT22;9921;47.186;9.778;2023-06-14T10:59:58;26.50;99.90
19552;DHT22;9921;47.186;9.778;2023-06-14T11:02:52;26.60;99.90
19552;DHT22;9921;47.186;9.778;2023-06-14T11:05:24;26.60;99.90
19552;DHT22;9921;47.186;9.778;2023-06-14T11:08:11;26.50;99.60
19552;DHT22;9921;47.186;9.778;2023-06-14T11:10:44;26.50;99.90
19552;DHT22;9921;47.186;9.778;2023-06-14T11:13:16;26.50;99.90
19552;DHT22;9921;47.186;9.778;2023-06-14T11:15:45;26.60;99.90
19552;DHT22;9921;47.186;9.778;2023-06-14T11:18:13;26.70;99.90
19552;DHT22;9921;47.186;9.778;2023-06-14T11:20:42;26.80;99.00
19552;DHT22;9921;47.186;9.778;2023-06-14T11:23:08;26.90;99.90
19552;DHT22;9921;47.186;9.778;2023-06-14T11:25:35;26.90;99.30
19552;DHT22;9921;47.186;9.778;2023-06-14T11:28:02;26.90;99.10
19552;DHT22;9921;47.186;9.778;2023-06-14T11:30:31;26.90;97.30
19552;DHT22;9921;47.186;9.778;2023-06-14T11:32:57;27.00;97.90
19552;DHT22;9921;47.186;9.778;2023-06-14T11:35:25;27.00;98.50
19552;DHT22;9921;47.186;9.778;2023-06-14T11:37:53;26.90;96.60
19552;DHT22;9921;47.186;9.778;2023-06-14T11:40:23;26.90;96.80
19552;DHT22;9921;47.186;9.778;2023-06-14T11:42:58;26.90;96.70
19552;DHT22;9921;47.186;9.778;2023-06-14T11:45:25;26.90;98.00
19552;DHT22;9921;47.186;9.778;2023-06-14T11:47:54;26.90;97.20
19552;DHT22;9921;47.186;9.778;2023-06-14T11:50:22;26.90;97.90
19552;DHT22;9921;47.186;9.778;2023-06-14T11:52:53;27.00;96.50
19552;DHT22;9921;47.186;9.778;2023-06-14T11:55:23;26.90;96.40
19552;DHT22;9921;47.186;9.778;2023-06-14T11:57:50;26.90;95.70
19552;DHT22;9921;47.186;9.778;2023-06-14T12:00:18;26.90;96.90
19552;DHT22;9921;47.186;9.778;2023-06-14T12:02:54;27.00;96.80
19552;DHT22;9921;47.186;9.778;2023-06-14T12:05:21;27.10;96.80
19552;DHT22;9921;47.186;9.778;2023-06-14T12:07:48;27.10;95.80
19552;DHT22;9921;47.186;9.778;2023-06-14T12:10:15;27.10;96.90
19552;DHT22;9921;47.186;9.778;2023-06-14T12:12:43;27.10;96.50
19552;DHT22;9921;47.186;9.778;2023-06-14T12:15:10;27.10;95.10
19552;DHT22;9921;47.186;9.778;2023-06-14T12:17:38;27.10;95.80
19552;DHT22;9921;47.186;9.778;2023-06-14T12:20:09;27.20;97.20
19552;DHT22;9921;47.186;9.778;2023-06-14T12:22:39;27.30;96.50
19552;DHT22;9921;47.186;9.778;2023-06-14T12:25:06;27.30;97.30
19552;DHT22;9921;47.186;9.778;2023-06-14T12:27:35;27.30;95.70
19552;DHT22;9921;47.186;9.778;2023-06-14T12:30:02;27.30;96.70
19552;DHT22;9921;47.186;9.778;2023-06-14T12:32:30;27.30;95.70
19552;DHT22;9921;47.186;9.778;2023-06-14T12:34:57;27.30;95.30
19552;DHT22;9921;47.186;9.778;2023-06-14T12:37:25;27.30;96.80
19552;DHT22;9921;47.186;9.778;2023-06-14T12:39:52;27.30;98.40
19552;DHT22;9921;47.186;9.778;2023-06-14T12:42:19;27.30;96.80
19552;DHT22;9921;47.186;9.778;2023-06-14T12:44:46;27.40;97.50
19552;DHT22;9921;47.186;9.778;2023-06-14T12:47:13;27.50;96.80
19552;DHT22;9921;47.186;9.778;2023-06-14T12:49:40;27.50;95.10
19552;DHT22;9921;47.186;9.778;2023-06-14T12:52:08;27.60;95.20
19552;DHT22;9921;47.186;9.778;2023-06-14T12:54:36;27.60;95.30
19552;DHT22;9921;47.186;9.778;2023-06-14T12:57:05;27.70;95.40
19552;DHT22;9921;47.186;9.778;2023-06-14T12:59:32;27.60;96.00
19552;DHT22;9921;47.186;9.778;2023-06-14T13:02:10;27.50;95.80
19552;DHT22;9921;47.186;9.778;2023-06-14T13:04:37;27.50;93.60
19552;DHT22;9921;47.186;9.778;2023-06-14T13:07:05;27.50;95.40
19552;DHT22;9921;47.186;9.778;2023-06-14T13:09:32;27.50;96.10
19552;DHT22;9921;47.186;9.778;2023-06-14T13:12:01;27.50;95.20
19552;DHT22;9921;47.186;9.778;2023-06-14T13:14:28;27.40;94.90
19552;DHT22;9921;47.186;9.778;2023-06-14T13:16:55;27.40;96.00
19552;DHT22;9921;47.186;9.778;2023-06-14T13:19:22;27.30;95.20
19552;DHT22;9921;47.186;9.778;2023-06-14T13:21:50;27.30;94.50
19552;DHT22;9921;47.186;9.778;2023-06-14T13:24:17;27.40;94.90
19552;DHT22;9921;47.186;9.778;2023-06-14T13:26:44;27.40;94.20
19552;DHT22;9921;47.186;9.778;2023-06-14T13:29:12;27.40;94.40
19552;DHT22;9921;47.186;9.778;2023-06-14T13:31:39;27.30;93.60
19552;DHT22;9921;47.186;9.778;2023-06-14T13:34:06;27.30;95.20
19552;DHT22;9921;47.186;9.778;2023-06-14T13:36:33;27.30;95.90
19552;DHT22;9921;47.186;9.778;2023-06-14T13:39:00;27.40;97.00
19552;DHT22;9921;47.186;9.778;2023-06-14T13:41:28;27.40;95.20
19552;DHT22;9921;47.186;9.778;2023-06-14T13:43:57;27.40;96.20
19552;DHT22;9921;47.186;9.778;2023-06-14T13:46:26;27.40;94.30
19552;DHT22;9921;47.186;9.778;2023-06-14T13:48:53;27.30;93.50
19552;DHT22;9921;47.186;9.778;2023-06-14T13:51:20;27.20;94.80
19552;DHT22;9921;47.186;9.778;2023-06-14T13:53:48;27.30;95.30
19552;DHT22;9921;47.186;9.778;2023-06-14T13:56:16;27.20;96.10
19552;DHT22;9921;47.186;9.778;2023-06-14T13:58:43;27.20;94.30
19552;DHT22;9921;47.186;9.778;2023-06-14T14:01:10;27.20;95.20
19552;DHT22;9921;47.186;9.778;2023-06-14T14:03:39;27.20;93.70
19552;DHT22;9921;47.186;9.778;2023-06-14T14:06:06;27.10;92.60
19552;DHT22;9921;47.186;9.778;2023-06-14T14:08:33;27.00;95.10
19552;DHT22;9921;47.186;9.778;2023-06-14T14:11:00;26.90;96.00
19552;DHT22;9921;47.186;9.778;2023-06-14T14:13:26;26.90;97.30
19552;DHT22;9921;47.186;9.778;2023-06-14T14:15:53;26.90;96.20
19552;DHT22;9921;47.186;9.778;2023-06-14T14:18:20;26.80;97.30
19552;DHT22;9921;47.186;9.778;2023-06-14T14:20:49;26.80;96.90
19552;DHT22;9921;47.186;9.778;2023-06-14T14:23:16;26.80;96.20
19552;DHT22;9921;47.186;9.778;2023-06-14T14:25:43;26.80;95.30
19552;DHT22;9921;47.186;9.778;2023-06-14T14:28:10;26.80;95.40
19552;DHT22;9921;47.186;9.778;2023-06-14T14:30:37;26.80;96.40
19552;DHT22;9921;47.186;9.778;2023-06-14T14:33:05;26.80;95.90
19552;DHT22;9921;47.186;9.778;2023-06-14T14:35:32;26.70;95.00
19552;DHT22;9921;47.186;9.778;2023-06-14T14:38:01;26.60;96.00
19552;DHT22;9921;47.186;9.778;2023-06-14T14:40:28;26.60;96.40
19552;DHT22;9921;47.186;9.778;2023-06-14T14:42:55;26.50;94.90
19552;DHT22;9921;47.186;9.778;2023-06-14T14:45:22;26.50;95.90
19552;DHT22;9921;47.186;9.778;2023-06-14T14:47:49;26.50;95.50
19552;DHT22;9921;47.186;9.778;2023-06-14T14:50:16;26.40;95.20
19552;DHT22;9921;47.186;9.778;2023-06-14T14:52:43;26.40;94.90
19552;DHT22;9921;47.186;9.778;2023-06-14T14:55:11;26.30;95.20
19552;DHT22;9921;47.186;9.778;2023-06-14T14:57:38;26.20;94.20
19552;DHT22;9921;47.186;9.778;2023-06-14T15:00:06;26.10;94.90
19552;DHT22;9921;47.186;9.778;2023-06-14T15:02:34;26.00;94.90
19552;DHT22;9921;47.186;9.778;2023-06-14T15:05:01;26.00;93.40
19552;DHT22;9921;47.186;9.778;2023-06-14T15:07:28;26.00;95.90
19552;DHT22;9921;47.186;9.778;2023-06-14T15:09:55;26.00;96.50
19552;DHT22;9921;47.186;9.778;2023-06-14T15:12:23;26.00;96.20
19552;DHT22;9921;47.186;9.778;2023-06-14T15:14:51;26.00;96.40
19552;DHT22;9921;47.186;9.778;2023-06-14T15:17:18;26.00;94.60
19552;DHT22;9921;47.186;9.778;2023-06-14T15:19:45;26.10;96.30
19552;DHT22;9921;47.186;9.778;2023-06-14T15:22:12;26.10;96.00
19552;DHT22;9921;47.186;9.778;2023-06-14T15:24:40;26.10;96.10
19552;DHT22;9921;47.186;9.778;2023-06-14T15:27:07;26.00;95.20
19552;DHT22;9921;47.186;9.778;2023-06-14T15:29:35;25.90;95.80
19552;DHT22;9921;47.186;9.778;2023-06-14T15:32:03;25.90;94.20
19552;DHT22;9921;47.186;9.778;2023-06-14T15:34:30;25.80;95.60
19552;DHT22;9921;47.186;9.778;2023-06-14T15:36:57;25.80;94.20
19552;DHT22;9921;47.186;9.778;2023-06-14T15:39:24;25.70;95.20
19552;DHT22;9921;47.186;9.778;2023-06-14T15:41:52;25.60;93.90
19552;DHT22;9921;47.186;9.778;2023-06-14T15:44:19;25.60;95.00
19552;DHT22;9921;47.186;9.778;2023-06-14T15:46:47;25.60;95.90
19552;DHT22;9921;47.186;9.778;2023-06-14T15:49:14;25.60;94.70
19552;DHT22;9921;47.186;9.778;2023-06-14T15:51:41;25.50;93.20